createdAt,value
2019-02-15T00:00:07.473Z,44.10
2019-02-15T00:02:36.319Z,42.43
2019-02-15T00:05:05.514Z,42.58
2019-02-15T00:07:34.305Z,41.85
2019-02-15T00:10:03.204Z,41.77
2019-02-15T00:12:32.245Z,46.68
2019-02-15T00:15:01.788Z,44.47
2019-02-15T00:18:08.402Z,47.60
2019-02-15T00:20:42.113Z,42.65
2019-02-15T00:23:11.421Z,44.53
2019-02-15T00:25:40.271Z,43.40
2019-02-15T00:28:09.243Z,44.42
2019-02-15T00:30:38.332Z,41.83
2019-02-15T00:33:07.551Z,42.10
2019-02-15T00:35:36.717Z,46.18
2019-02-15T00:38:05.487Z,45.45
2019-02-15T00:40:34.272Z,39.90
2019-02-15T00:43:03.718Z,41.60
2019-02-15T00:45:36.594Z,44.98
2019-02-15T00:48:09.252Z,44.18
2019-02-15T00:50:44.386Z,46.08
2019-02-15T00:53:26.409Z,44.77
2019-02-15T00:56:30.041Z,47.43
2019-02-15T00:59:16.708Z,45.38
2019-02-15T01:02:07.570Z,44.60
2019-02-15T01:04:46.126Z,44.80
2019-02-15T01:07:32.549Z,43.63
2019-02-15T01:10:13.031Z,40.03
2019-02-15T01:12:49.986Z,41.50
2019-02-15T01:15:18.836Z,46.37
2019-02-15T01:17:47.873Z,43.05
2019-02-15T01:20:16.809Z,41.20
2019-02-15T01:22:45.609Z,41.73
2019-02-15T01:25:15.257Z,41.20
2019-02-15T01:28:06.117Z,40.33
2019-02-15T01:30:53.087Z,39.18
2019-02-15T01:33:47.074Z,38.95
2019-02-15T01:36:25.212Z,41.40
2019-02-15T01:39:16.173Z,40.65
2019-02-15T01:42:03.519Z,40.50
2019-02-15T01:44:37.282Z,43.40
2019-02-15T01:47:13.028Z,40.88
2019-02-15T01:49:42.343Z,37.85
2019-02-15T01:52:11.122Z,37.90
2019-02-15T01:54:40.222Z,37.00
2019-02-15T01:57:09.734Z,42.27
2019-02-15T01:59:38.599Z,41.92
2019-02-15T02:02:07.941Z,41.42
2019-02-15T02:04:37.219Z,37.53
2019-02-15T02:07:05.988Z,39.03
2019-02-15T02:09:35.289Z,37.33
2019-02-15T02:12:04.792Z,37.23
2019-02-15T02:14:33.564Z,36.42
2019-02-15T02:17:02.352Z,33.88
2019-02-15T02:19:31.156Z,34.55
2019-02-15T02:22:00.372Z,36.25
2019-02-15T02:24:29.706Z,37.13
2019-02-15T02:26:58.477Z,35.30
2019-02-15T02:29:27.555Z,36.90
2019-02-15T02:31:56.441Z,39.57
2019-02-15T02:34:25.218Z,37.70
2019-02-15T02:36:57.372Z,39.40
2019-02-15T02:39:26.889Z,36.05
2019-02-15T02:41:55.754Z,39.42
2019-02-15T02:44:24.504Z,35.73
2019-02-15T02:46:53.368Z,36.98
2019-02-15T02:49:22.344Z,39.45
2019-02-15T02:51:51.188Z,36.73
2019-02-15T02:54:20.404Z,36.48
2019-02-15T02:56:49.184Z,39.23
2019-02-15T02:59:18.028Z,40.78
2019-02-15T03:01:46.777Z,36.53
2019-02-15T03:04:16.326Z,42.07
2019-02-15T03:06:45.704Z,38.58
2019-02-15T03:09:14.804Z,35.17
2019-02-15T03:11:43.635Z,37.08
2019-02-15T03:14:12.489Z,36.00
2019-02-15T03:16:41.612Z,36.15
2019-02-15T03:19:10.396Z,37.67
2019-02-15T03:21:39.233Z,39.25
2019-02-15T03:24:08.375Z,38.50
2019-02-15T03:26:37.431Z,40.17
2019-02-15T03:29:06.509Z,40.88
2019-02-15T03:31:35.262Z,38.35
2019-02-15T03:34:04.142Z,36.40
2019-02-15T03:36:50.550Z,38.00
2019-02-15T03:39:32.931Z,40.12
2019-02-15T03:42:02.235Z,41.02
2019-02-15T03:44:31.321Z,37.73
2019-02-15T03:47:00.136Z,38.30
2019-02-15T03:49:28.940Z,41.05
2019-02-15T03:51:58.125Z,40.90
2019-02-15T03:54:27.137Z,45.65
2019-02-15T03:56:55.964Z,41.15
2019-02-15T03:59:25.197Z,40.90
2019-02-15T04:01:54.280Z,41.70
2019-02-15T04:04:23.049Z,40.10
2019-02-15T04:06:52.554Z,38.30
2019-02-15T04:09:21.312Z,38.55
2019-02-15T04:11:50.660Z,39.60
2019-02-15T04:14:19.745Z,38.15
2019-02-15T04:16:48.521Z,35.68
2019-02-15T04:19:17.614Z,38.53
2019-02-15T04:21:46.424Z,38.63
2019-02-15T04:24:16.011Z,38.57
2019-02-15T04:26:44.880Z,35.25
2019-02-15T04:29:13.627Z,38.10
2019-02-15T04:31:42.391Z,37.45
2019-02-15T04:34:11.161Z,38.75
2019-02-15T04:36:39.936Z,38.33
2019-02-15T04:39:08.765Z,36.50
2019-02-15T04:41:37.840Z,36.50
2019-02-15T04:44:07.442Z,37.50
2019-02-15T04:46:36.545Z,40.30
2019-02-15T04:49:05.844Z,39.88
2019-02-15T04:51:35.055Z,38.90
2019-02-15T04:54:04.179Z,40.78
2019-02-15T04:56:33.224Z,40.75
2019-02-15T04:59:02.330Z,39.90
2019-02-15T05:01:31.572Z,38.20
2019-02-15T05:04:01.161Z,41.77
2019-02-15T05:06:30.306Z,39.27
2019-02-15T05:08:59.089Z,36.48
2019-02-15T05:11:27.890Z,38.88
2019-02-15T05:13:56.972Z,37.38
2019-02-15T05:16:25.730Z,38.98
2019-02-15T05:18:54.763Z,37.90
2019-02-15T05:21:25.284Z,38.40
2019-02-15T05:23:54.394Z,39.55
2019-02-15T05:26:23.221Z,38.48
2019-02-15T05:28:52.461Z,38.38
2019-02-15T05:31:21.319Z,40.45
2019-02-15T05:33:50.152Z,40.52
2019-02-15T05:36:19.115Z,39.70
2019-02-15T05:38:47.881Z,38.30
2019-02-15T05:41:17.224Z,37.00
2019-02-15T05:43:46.314Z,38.47
2019-02-15T05:46:15.862Z,38.88
2019-02-15T05:48:44.724Z,36.63
2019-02-15T05:51:13.537Z,39.05
2019-02-15T05:53:42.614Z,38.15
2019-02-15T05:56:12.028Z,39.03
2019-02-15T05:58:40.826Z,35.23
2019-02-15T06:01:11.272Z,37.57
2019-02-15T06:03:40.080Z,40.63
2019-02-15T06:06:08.876Z,39.20
2019-02-15T06:08:45.081Z,36.60
2019-02-15T06:11:13.886Z,35.88
2019-02-15T06:13:42.697Z,39.55
2019-02-15T06:16:11.947Z,39.98
2019-02-15T06:18:41.089Z,40.52
2019-02-15T06:21:10.253Z,43.00
2019-02-15T06:23:39.345Z,37.85
2019-02-15T06:26:08.624Z,38.50
2019-02-15T06:28:38.048Z,39.73
2019-02-15T06:31:07.346Z,40.25
2019-02-15T06:33:36.136Z,40.35
2019-02-15T06:36:04.993Z,40.17
2019-02-15T06:38:35.235Z,45.28
2019-02-15T06:41:04.227Z,40.85
2019-02-15T06:43:33.121Z,45.48
2019-02-15T06:46:02.098Z,41.80
2019-02-15T06:48:31.308Z,44.38
2019-02-15T06:51:00.250Z,42.70
2019-02-15T06:53:30.148Z,40.33
2019-02-15T06:55:59.157Z,39.90
2019-02-15T06:58:28.620Z,42.35
2019-02-15T07:01:15.361Z,40.00
2019-02-15T07:03:52.050Z,43.30
2019-02-15T07:06:21.205Z,42.90
2019-02-15T07:08:50.653Z,42.65
2019-02-15T07:11:19.455Z,39.37
2019-02-15T07:13:48.342Z,42.63
2019-02-15T07:16:17.178Z,43.73
2019-02-15T07:18:46.081Z,39.67
2019-02-15T07:21:15.040Z,41.55
2019-02-15T07:23:44.044Z,38.63
2019-02-15T07:26:13.727Z,36.85
2019-02-15T07:28:43.134Z,36.63
2019-02-15T07:31:12.557Z,39.97
2019-02-15T07:33:41.945Z,34.20
2019-02-15T07:36:11.862Z,36.88
2019-02-15T07:38:41.085Z,33.63
2019-02-15T07:41:10.087Z,35.13
2019-02-15T07:43:39.344Z,32.07
2019-02-15T07:46:12.883Z,33.08
2019-02-15T07:48:41.845Z,31.25
2019-02-15T07:51:11.325Z,32.93
2019-02-15T07:53:40.312Z,32.03
2019-02-15T07:56:09.631Z,31.10
2019-02-15T07:58:38.587Z,30.55
2019-02-15T08:01:07.482Z,27.55
2019-02-15T08:03:36.369Z,28.23
2019-02-15T08:06:05.298Z,28.80
2019-02-15T08:08:34.301Z,31.75
2019-02-15T08:11:03.598Z,29.00
2019-02-15T08:13:32.502Z,28.47
2019-02-15T08:16:02.891Z,29.72
2019-02-15T08:18:32.333Z,26.65
2019-02-15T08:21:01.324Z,25.23
2019-02-15T08:23:30.242Z,24.10
2019-02-15T08:25:59.073Z,26.10
2019-02-15T08:28:28.251Z,25.77
2019-02-15T08:30:57.135Z,25.20
2019-02-15T08:33:26.072Z,24.70
2019-02-15T08:35:54.914Z,26.00
2019-02-15T08:38:23.852Z,23.10
2019-02-15T08:40:53.024Z,21.80
2019-02-15T08:43:23.147Z,24.57
2019-02-15T08:46:00.337Z,21.47
2019-02-15T08:48:23.221Z,22.35
2019-02-15T08:50:52.215Z,22.87
2019-02-15T08:53:21.321Z,22.93
2019-02-15T08:55:50.331Z,22.17
2019-02-15T08:58:19.581Z,21.93
2019-02-15T09:00:49.086Z,22.37
2019-02-15T09:03:18.158Z,24.30
2019-02-15T09:05:47.502Z,22.40
2019-02-15T09:08:16.438Z,22.77
2019-02-15T09:10:45.385Z,22.47
2019-02-15T09:13:14.635Z,24.10
2019-02-15T09:15:43.684Z,23.55
2019-02-15T09:18:13.437Z,23.05
2019-02-15T09:20:42.989Z,22.17
2019-02-15T09:23:12.442Z,22.67
2019-02-15T09:25:41.425Z,21.95
2019-02-15T09:28:22.708Z,22.82
2019-02-15T09:30:53.281Z,21.00
2019-02-15T09:33:22.282Z,22.00
2019-02-15T09:35:51.473Z,20.27
2019-02-15T09:38:20.604Z,21.17
2019-02-15T09:40:49.970Z,20.82
2019-02-15T09:43:19.103Z,21.15
2019-02-15T09:45:48.082Z,20.45
2019-02-15T09:48:17.120Z,21.57
2019-02-15T09:50:46.040Z,19.92
2019-02-15T09:53:15.312Z,19.95
2019-02-15T09:55:44.217Z,19.30
2019-02-15T09:58:13.208Z,18.10
2019-02-15T10:00:42.393Z,16.73
2019-02-15T10:03:11.325Z,17.02
2019-02-15T10:05:40.205Z,15.50
2019-02-15T10:08:09.584Z,16.75
2019-02-15T10:10:38.517Z,17.23
2019-02-15T10:13:08.328Z,15.55
2019-02-15T10:15:37.588Z,15.83
2019-02-15T10:18:06.617Z,15.93
2019-02-15T10:20:35.491Z,15.93
2019-02-15T10:23:05.109Z,14.98
2019-02-15T10:25:34.058Z,15.18
2019-02-15T10:28:03.376Z,16.10
2019-02-15T10:30:32.683Z,15.63
2019-02-15T10:33:02.169Z,15.97
2019-02-15T10:35:31.082Z,14.75
2019-02-15T10:38:00.102Z,15.08
2019-02-15T10:40:29.717Z,16.23
2019-02-15T10:42:58.893Z,18.20
2019-02-15T10:45:27.956Z,15.32
2019-02-15T10:47:57.463Z,15.70
2019-02-15T10:50:26.451Z,16.40
2019-02-15T10:52:55.367Z,15.80
2019-02-15T10:55:24.301Z,14.68
2019-02-15T10:57:53.519Z,13.72
2019-02-15T11:00:22.529Z,14.75
2019-02-15T11:02:51.469Z,16.30
2019-02-15T11:05:21.666Z,13.80
2019-02-15T11:07:51.196Z,14.55
2019-02-15T11:10:20.615Z,14.93
2019-02-15T11:12:49.745Z,13.90
2019-02-15T11:15:37.876Z,14.20
2019-02-15T11:18:17.318Z,13.68
2019-02-15T11:20:46.304Z,15.50
2019-02-15T11:23:15.546Z,15.58
2019-02-15T11:25:44.694Z,13.80
2019-02-15T11:28:13.905Z,15.60
2019-02-15T11:30:42.769Z,14.83
2019-02-15T11:33:11.668Z,16.07
2019-02-15T11:35:40.912Z,14.07
2019-02-15T11:38:17.651Z,15.20
2019-02-15T11:40:46.478Z,15.38
2019-02-15T11:43:15.333Z,14.87
2019-02-15T11:45:46.377Z,14.95
2019-02-15T11:48:33.486Z,14.85
2019-02-15T11:51:02.416Z,15.30
2019-02-15T11:53:31.557Z,15.30
2019-02-15T11:56:00.384Z,15.37
2019-02-15T11:58:29.298Z,13.80
2019-02-15T12:00:59.900Z,13.40
2019-02-15T12:03:28.793Z,13.23
2019-02-15T12:05:58.641Z,14.50
2019-02-15T12:08:36.004Z,13.32
2019-02-15T12:11:04.908Z,13.25
2019-02-15T12:13:33.699Z,13.55
2019-02-15T12:16:02.602Z,12.88
2019-02-15T12:18:31.492Z,13.65
2019-02-15T12:21:00.566Z,13.10
2019-02-15T12:23:29.544Z,14.50
2019-02-15T12:25:58.584Z,14.65
2019-02-15T12:28:27.694Z,14.68
2019-02-15T12:30:56.744Z,13.72
2019-02-15T12:33:25.818Z,12.45
2019-02-15T12:35:54.581Z,13.88
2019-02-15T12:38:23.594Z,12.60
2019-02-15T12:40:52.420Z,11.97
2019-02-15T12:43:21.250Z,10.48
2019-02-15T12:45:50.308Z,11.10
2019-02-15T12:48:19.070Z,12.15
2019-02-15T12:50:47.949Z,12.58
2019-02-15T12:53:17.000Z,12.35
2019-02-15T12:55:45.795Z,11.93
2019-02-15T12:58:14.556Z,11.38
2019-02-15T13:00:43.372Z,11.60
2019-02-15T13:03:12.705Z,11.25
2019-02-15T13:05:41.951Z,11.20
2019-02-15T13:08:11.020Z,11.60
2019-02-15T13:10:40.546Z,13.75
2019-02-15T13:13:09.468Z,11.12
2019-02-15T13:15:38.288Z,11.57
2019-02-15T13:18:07.228Z,10.43
2019-02-15T13:20:36.071Z,11.73
2019-02-15T13:23:04.882Z,9.70
2019-02-15T13:25:36.718Z,10.60
2019-02-15T13:28:04.379Z,10.08
2019-02-15T13:30:33.199Z,11.83
2019-02-15T13:33:02.314Z,10.67
2019-02-15T13:35:31.176Z,11.17
2019-02-15T13:37:59.991Z,10.72
2019-02-15T13:40:28.747Z,11.88
2019-02-15T13:42:57.840Z,13.43
2019-02-15T13:45:26.583Z,12.00
2019-02-15T13:47:55.352Z,12.07
2019-02-15T13:50:24.164Z,14.63
2019-02-15T13:52:52.934Z,11.37
2019-02-15T13:55:21.764Z,11.85
2019-02-15T13:57:50.543Z,11.25
2019-02-15T14:00:19.300Z,10.80
2019-02-15T14:02:48.063Z,10.70
2019-02-15T14:05:17.153Z,10.80
2019-02-15T14:07:45.983Z,12.47
2019-02-15T14:10:14.832Z,11.07
2019-02-15T14:12:43.682Z,11.73
2019-02-15T14:15:12.889Z,11.08
2019-02-15T14:17:46.274Z,10.50
2019-02-15T14:20:12.544Z,9.23
2019-02-15T14:22:41.372Z,9.23
2019-02-15T14:25:10.730Z,9.98
2019-02-15T14:27:39.609Z,9.45
2019-02-15T14:30:09.449Z,9.60
2019-02-15T14:32:38.291Z,11.40
2019-02-15T14:35:08.175Z,13.15
2019-02-15T14:37:36.940Z,11.95
2019-02-15T14:40:05.792Z,13.08
2019-02-15T14:42:34.621Z,14.15
2019-02-15T14:45:03.808Z,11.20
2019-02-15T14:47:32.642Z,10.78
2019-02-15T14:50:01.386Z,10.50
2019-02-15T14:52:30.137Z,9.45
2019-02-15T14:54:59.133Z,10.08
2019-02-15T14:57:27.876Z,8.53
2019-02-15T14:59:56.993Z,8.50
2019-02-15T15:02:25.790Z,8.37
2019-02-15T15:04:54.562Z,8.90
2019-02-15T15:07:23.308Z,8.53
2019-02-15T15:09:52.324Z,7.87
2019-02-15T15:12:21.672Z,8.00
2019-02-15T15:14:50.581Z,9.57
2019-02-15T15:17:19.590Z,8.35
2019-02-15T15:19:48.632Z,8.00
2019-02-15T15:22:17.494Z,8.08
2019-02-15T15:24:46.287Z,8.38
2019-02-15T15:27:15.663Z,8.23
2019-02-15T15:29:44.436Z,7.20
2019-02-15T15:32:13.480Z,7.50
2019-02-15T15:34:42.397Z,8.48
2019-02-15T15:37:16.508Z,6.22
2019-02-15T15:39:41.632Z,7.08
2019-02-15T15:42:10.466Z,8.05
2019-02-15T15:44:39.224Z,7.00
2019-02-15T15:47:08.135Z,7.37
2019-02-15T15:49:36.890Z,9.18
2019-02-15T15:52:05.972Z,8.48
2019-02-15T15:54:34.961Z,6.73
2019-02-15T15:57:03.724Z,10.33
2019-02-15T15:59:32.893Z,10.32
2019-02-15T16:02:01.660Z,13.00
2019-02-15T16:04:30.655Z,14.43
2019-02-15T16:06:59.438Z,11.60
2019-02-15T16:09:28.269Z,13.00
2019-02-15T16:11:57.055Z,13.48
2019-02-15T16:14:25.863Z,11.73
2019-02-15T16:16:54.619Z,14.83
2019-02-15T16:19:23.409Z,14.83
2019-02-15T16:21:52.220Z,13.40
2019-02-15T16:24:20.988Z,15.50
2019-02-15T16:26:50.076Z,13.55
2019-02-15T16:29:18.928Z,12.28
2019-02-15T16:31:47.675Z,13.08
2019-02-15T16:34:17.900Z,12.03
2019-02-15T16:36:47.093Z,13.30
2019-02-15T16:39:15.921Z,13.08
2019-02-15T16:41:44.663Z,14.00
2019-02-15T16:44:13.615Z,12.88
2019-02-15T16:46:42.443Z,12.30
2019-02-15T16:49:11.192Z,11.93
2019-02-15T16:51:39.956Z,11.95
2019-02-15T16:54:08.732Z,15.10
2019-02-15T16:56:37.567Z,14.30
2019-02-15T16:59:06.316Z,14.53
2019-02-15T17:01:35.160Z,13.10
2019-02-15T17:04:04.078Z,13.78
2019-02-15T17:06:33.133Z,14.65
2019-02-15T17:09:01.886Z,13.85
2019-02-15T17:11:31.088Z,14.95
2019-02-15T17:13:59.941Z,14.07
2019-02-15T17:16:28.935Z,14.40
2019-02-15T17:18:57.691Z,10.75
2019-02-15T17:21:26.554Z,10.28
2019-02-15T17:23:55.284Z,12.15
2019-02-15T17:26:24.059Z,10.53
2019-02-15T17:28:52.799Z,11.65
2019-02-15T17:31:21.573Z,10.82
2019-02-15T17:33:50.366Z,13.25
2019-02-15T17:36:19.143Z,11.85
2019-02-15T17:38:48.156Z,11.83
2019-02-15T17:41:16.904Z,9.35
2019-02-15T17:43:45.649Z,11.43
2019-02-15T17:46:14.412Z,13.63
2019-02-15T17:48:43.325Z,11.97
2019-02-15T17:51:12.684Z,11.25
2019-02-15T17:53:41.448Z,11.20
2019-02-15T17:56:10.281Z,13.43
2019-02-15T17:58:39.701Z,11.25
2019-02-15T18:01:09.569Z,11.75
2019-02-15T18:03:38.593Z,12.47
2019-02-15T18:06:07.352Z,13.53
2019-02-15T18:08:36.423Z,10.50
2019-02-15T18:11:05.240Z,12.07
2019-02-15T18:13:34.312Z,9.73
2019-02-15T18:16:03.063Z,10.48
2019-02-15T18:18:32.315Z,10.82
2019-02-15T18:21:01.094Z,13.00
2019-02-15T18:23:29.845Z,12.47
2019-02-15T18:25:58.584Z,145.10
2019-02-15T18:28:27.356Z,50.85
2019-02-15T18:30:56.101Z,47.38
2019-02-15T18:33:24.858Z,43.75
2019-02-15T18:35:54.016Z,40.65
2019-02-15T18:38:23.781Z,38.05
2019-02-15T18:40:52.525Z,37.30
2019-02-15T18:43:21.844Z,26.95
2019-02-15T18:45:51.308Z,20.48
2019-02-15T18:48:20.128Z,14.35
2019-02-15T18:50:49.005Z,13.07
2019-02-15T18:53:17.759Z,15.28
2019-02-15T18:55:46.508Z,15.70
2019-02-15T18:58:15.334Z,15.70
2019-02-15T19:00:44.352Z,16.05
2019-02-15T19:03:13.390Z,15.60
2019-02-15T19:05:42.204Z,16.27
2019-02-15T19:08:10.988Z,14.90
2019-02-15T19:10:40.060Z,15.78
2019-02-15T19:13:08.821Z,13.80
2019-02-15T19:15:37.665Z,11.38
2019-02-15T19:18:06.555Z,12.13
2019-02-15T19:20:35.321Z,12.35
2019-02-15T19:23:04.419Z,10.50
2019-02-15T19:25:33.370Z,12.47
2019-02-15T19:28:10.441Z,11.60
2019-02-15T19:30:39.752Z,12.53
2019-02-15T19:33:09.057Z,11.33
2019-02-15T19:35:38.076Z,11.40
2019-02-15T19:38:06.846Z,13.53
2019-02-15T19:40:36.277Z,12.93
2019-02-15T19:43:05.166Z,16.50
2019-02-15T19:45:34.581Z,15.08
2019-02-15T19:48:03.459Z,15.93
2019-02-15T19:50:32.370Z,16.25
2019-02-15T19:53:01.470Z,12.95
2019-02-15T19:55:30.365Z,12.15
2019-02-15T19:57:59.172Z,11.45
2019-02-15T20:00:28.117Z,11.57
2019-02-15T20:02:56.920Z,13.62
2019-02-15T20:05:25.817Z,13.38
2019-02-15T20:07:54.654Z,11.33
2019-02-15T20:10:23.613Z,13.98
2019-02-15T20:12:52.379Z,12.00
2019-02-15T20:15:21.545Z,13.72
2019-02-15T20:17:50.405Z,14.17
2019-02-15T20:20:19.216Z,14.75
2019-02-15T20:22:48.001Z,17.80
2019-02-15T20:25:16.994Z,21.37
2019-02-15T20:27:46.895Z,17.52
2019-02-15T20:30:17.344Z,17.42
2019-02-15T20:32:46.450Z,18.80
2019-02-15T20:35:15.213Z,17.95
2019-02-15T20:37:44.053Z,18.92
2019-02-15T20:40:13.308Z,19.42
2019-02-15T20:42:42.245Z,17.57
2019-02-15T20:45:13.962Z,20.33
2019-02-15T20:47:43.052Z,19.82
2019-02-15T20:50:12.073Z,19.73
2019-02-15T20:52:40.936Z,21.77
2019-02-15T20:55:11.461Z,22.17
2019-02-15T20:57:40.571Z,20.57
2019-02-15T21:00:12.101Z,20.67
2019-02-15T21:02:40.874Z,23.02
2019-02-15T21:05:10.329Z,20.52
2019-02-15T21:07:39.119Z,18.85
2019-02-15T21:10:09.641Z,20.57
2019-02-15T21:12:39.631Z,18.92
2019-02-15T21:15:09.048Z,19.53
2019-02-15T21:17:38.177Z,22.70
2019-02-15T21:20:08.490Z,28.62
2019-02-15T21:22:37.354Z,26.62
2019-02-15T21:25:07.455Z,24.17
2019-02-15T21:27:36.221Z,23.87
2019-02-15T21:30:06.131Z,19.67
2019-02-15T21:32:35.402Z,18.52
2019-02-15T21:35:04.455Z,18.30
2019-02-15T21:37:33.244Z,17.55
2019-02-15T21:40:02.073Z,16.48
2019-02-15T21:42:30.904Z,16.77
2019-02-15T21:44:59.683Z,15.95
2019-02-15T21:47:28.847Z,17.42
2019-02-15T21:49:57.612Z,14.73
2019-02-15T21:52:26.448Z,14.95
2019-02-15T21:54:55.566Z,17.02
2019-02-15T21:57:24.946Z,16.70
2019-02-15T21:59:53.730Z,14.23
2019-02-15T22:02:22.685Z,16.70
2019-02-15T22:04:51.448Z,17.15
2019-02-15T22:07:20.485Z,15.80
2019-02-15T22:09:49.364Z,16.73
2019-02-15T22:12:18.123Z,16.30
2019-02-15T22:14:47.064Z,18.10
2019-02-15T22:17:15.831Z,19.35
2019-02-15T22:19:44.601Z,19.10
2019-02-15T22:22:13.424Z,25.95
2019-02-15T22:24:42.183Z,25.92
2019-02-15T22:27:10.955Z,21.40
2019-02-15T22:29:39.824Z,19.27
2019-02-15T22:32:08.700Z,18.35
2019-02-15T22:34:38.159Z,20.45
2019-02-15T22:37:07.327Z,20.30
2019-02-15T22:39:36.099Z,21.12
2019-02-15T22:42:05.368Z,20.68
2019-02-15T22:44:34.477Z,18.17
2019-02-15T22:47:03.513Z,15.83
2019-02-15T22:49:42.943Z,20.17
2019-02-15T22:52:03.124Z,22.32
2019-02-15T22:54:32.463Z,20.72
2019-02-15T22:57:01.266Z,20.62
2019-02-15T22:59:31.104Z,19.07
2019-02-15T23:02:00.018Z,19.82
2019-02-15T23:04:29.071Z,21.00
2019-02-15T23:06:57.844Z,20.70
2019-02-15T23:09:26.790Z,19.37
2019-02-15T23:11:55.901Z,20.33
2019-02-15T23:14:24.960Z,17.80
2019-02-15T23:16:53.830Z,17.90
2019-02-15T23:19:22.677Z,19.67
2019-02-15T23:21:51.524Z,20.02
2019-02-15T23:24:20.289Z,19.23
2019-02-15T23:26:49.046Z,19.35
2019-02-15T23:29:17.964Z,19.95
2019-02-15T23:31:47.101Z,21.02
2019-02-15T23:34:15.876Z,20.43
2019-02-15T23:36:44.652Z,21.30
2019-02-15T23:39:13.761Z,22.32
2019-02-15T23:41:42.861Z,17.55
2019-02-15T23:44:12.001Z,20.62
2019-02-15T23:46:40.755Z,19.48
2019-02-15T23:49:09.592Z,20.55
2019-02-15T23:51:38.375Z,20.75
2019-02-15T23:54:07.181Z,20.30
2019-02-15T23:56:36.047Z,20.68
2019-02-15T23:59:04.804Z,16.97
